Ilyas Efendiyev — 9HES8 — position and weather

sailwx.info

Track history (hours):
 
Tides and Currents Weather Stations Pressure Air Temp Water Temp Dewpoint Dewpoint Depression Visibility Wind Speed Wind Dir Waves Ship Positions

Ilyas Efendiyev

Last reported at 2016-Dec-08 11:33 UTC. Time now 2016-Dec-08 11:58 UTC.
Position N 38°56' W 010°07'.

Length 140 m; draft 4.6 m.

Type: Cargo ship. MMSI: 215901000.

Date/timePositionNaut miles runAvg speedWind from/ knotsBaromVisibWave heightAir tempDewpointWater temp
2016-Dec-08 11:33N 38°56' W 010°07'10 7.2
2016-Dec-08 10:11N 39°06' W 010°07'5 7.4
2016-Dec-08 09:26N 39°12' W 010°07'  
2016-Dec-04 07:34N 49°52' W 003°21'8 7.7
2016-Dec-04 06:33N 49°55' W 003°10'9 8.8
2016-Dec-04 05:32N 49°58' W 002°57'38 8.6
2016-Dec-04 01:06N 49°58' W 001°57'4 7.4
2016-Dec-04 00:33N 49°57' W 001°51'5 5.2
2016-Dec-03 23:33N 49°56' W 001°44'4 3.6
2016-Dec-03 22:33N 49°55' W 001°38'5 5.2
2016-Dec-03 21:34N 49°53' W 001°31'5 5.1
2016-Dec-03 20:33N 49°52' W 001°23'6 5.8
2016-Dec-03 19:33N 49°48' W 001°16'7 7.2
2016-Dec-03 18:33N 49°42' W 001°10'14 0.3
2016-Dec-01 18:33N 49°40' W 000°48'9 8.9
2016-Dec-01 17:33N 49°46' W 000°39'9 9.0
2016-Dec-01 16:33N 49°53' W 000°29'10 9.8
2016-Dec-01 15:31N 50°00' W 000°18'10 9.9
2016-Dec-01 14:32N 50°07' W 000°08'8 8.4
2016-Dec-01 13:33N 50°15' W 000°06'8 8.0
2016-Dec-01 12:31N 50°23' W 000°03'7 7.3
2016-Dec-01 11:33N 50°29' E 000°04'7 7.4
2016-Dec-01 10:33N 50°32' E 000°15'7 6.8
2016-Dec-01 09:32N 50°35' E 000°24'8 7.2
2016-Dec-01 08:25N 50°39' E 000°35'18 9.4
2016-Dec-01 06:30N 50°50' E 000°58'1110.2
2016-Dec-01 05:26N 50°56' E 001°12'8 9.6
2016-Dec-01 04:33N 51°02' E 001°22'8 8.4
2016-Dec-01 03:34N 51°07' E 001°32'7 6.9
2016-Dec-01 02:33N 51°12' E 001°41'6 6.3
2016-Dec-01 01:34N 51°16' E 001°47'7 7.0
2016-Dec-01 00:33N 51°23' E 001°51'8 7.6
2016-Nov-30 23:33N 51°30' E 001°57'10 9.3
2016-Nov-30 22:31N 51°36' E 002°08'78 7.1
2016-Nov-30 11:34N 52°54' E 001°58'8 8.4
2016-Nov-30 10:34N 52°59' E 001°46'9 9.4
2016-Nov-30 09:34N 53°03' E 001°32'58 9.4
2016-Nov-30 03:24N 53°33' E 000°09'4 4.3
2016-Nov-30 02:33N 53°34' E 000°04'6 6.2
2016-Nov-30 01:34N 53°37' W 000°05'4 3.2
2016-Nov-30 00:25N 53°38' W 000°11'0 0.0
2016-Nov-29 19:27N 53°38' W 000°12'0 0.0
2016-Nov-29 06:14N 53°38' W 000°12'0 0.0
2016-Nov-29 01:18N 53°38' W 000°12'0 0.0
2016-Nov-28 23:32N 53°38' W 000°12'0 0.0
2016-Nov-28 22:32N 53°38' W 000°12'0 0.0
2016-Nov-28 21:33N 53°38' W 000°12'0 0.0
2016-Nov-28 13:25N 53°38' W 000°12'  
Track history (hours):
 
Tides and Currents Weather Stations Pressure Air Temp Water Temp Dewpoint Dewpoint Depression Visibility Wind Speed Wind Dir Waves Ship Positions

Ilyas Efendiyev

Last reported at 2016-Dec-08 11:33 UTC. Time now 2016-Dec-08 11:58 UTC.
Position N 38°56' W 010°07'.

Length 140 m; draft 4.6 m.

Type: Cargo ship. MMSI: 215901000.

Date/timePositionNaut miles runAvg speedWind from/ knotsBaromVisibWave heightAir tempDewpointWater temp
2016-Dec-08 11:33N 38°56' W 010°07'10 7.2
2016-Dec-08 10:11N 39°06' W 010°07'5 7.4
2016-Dec-08 09:26N 39°12' W 010°07'  
2016-Dec-04 07:34N 49°52' W 003°21'8 7.7
2016-Dec-04 06:33N 49°55' W 003°10'9 8.8
2016-Dec-04 05:32N 49°58' W 002°57'38 8.6
2016-Dec-04 01:06N 49°58' W 001°57'4 7.4
2016-Dec-04 00:33N 49°57' W 001°51'5 5.2
2016-Dec-03 23:33N 49°56' W 001°44'4 3.6
2016-Dec-03 22:33N 49°55' W 001°38'5 5.2
2016-Dec-03 21:34N 49°53' W 001°31'5 5.1
2016-Dec-03 20:33N 49°52' W 001°23'6 5.8
2016-Dec-03 19:33N 49°48' W 001°16'7 7.2
2016-Dec-03 18:33N 49°42' W 001°10'14 0.3
2016-Dec-01 18:33N 49°40' W 000°48'9 8.9
2016-Dec-01 17:33N 49°46' W 000°39'9 9.0
2016-Dec-01 16:33N 49°53' W 000°29'10 9.8
2016-Dec-01 15:31N 50°00' W 000°18'10 9.9
2016-Dec-01 14:32N 50°07' W 000°08'8 8.4
2016-Dec-01 13:33N 50°15' W 000°06'8 8.0
2016-Dec-01 12:31N 50°23' W 000°03'7 7.3
2016-Dec-01 11:33N 50°29' E 000°04'7 7.4
2016-Dec-01 10:33N 50°32' E 000°15'7 6.8
2016-Dec-01 09:32N 50°35' E 000°24'8 7.2
2016-Dec-01 08:25N 50°39' E 000°35'18 9.4
2016-Dec-01 06:30N 50°50' E 000°58'1110.2
2016-Dec-01 05:26N 50°56' E 001°12'8 9.6
2016-Dec-01 04:33N 51°02' E 001°22'8 8.4
2016-Dec-01 03:34N 51°07' E 001°32'7 6.9
2016-Dec-01 02:33N 51°12' E 001°41'6 6.3
2016-Dec-01 01:34N 51°16' E 001°47'7 7.0
2016-Dec-01 00:33N 51°23' E 001°51'8 7.6
2016-Nov-30 23:33N 51°30' E 001°57'10 9.3
2016-Nov-30 22:31N 51°36' E 002°08'78 7.1
2016-Nov-30 11:34N 52°54' E 001°58'8 8.4
2016-Nov-30 10:34N 52°59' E 001°46'9 9.4
2016-Nov-30 09:34N 53°03' E 001°32'58 9.4
2016-Nov-30 03:24N 53°33' E 000°09'4 4.3
2016-Nov-30 02:33N 53°34' E 000°04'6 6.2
2016-Nov-30 01:34N 53°37' W 000°05'4 3.2
2016-Nov-30 00:25N 53°38' W 000°11'0 0.0
2016-Nov-29 19:27N 53°38' W 000°12'0 0.0
2016-Nov-29 06:14N 53°38' W 000°12'0 0.0
2016-Nov-29 01:18N 53°38' W 000°12'0 0.0
2016-Nov-28 23:32N 53°38' W 000°12'0 0.0
2016-Nov-28 22:32N 53°38' W 000°12'0 0.0
2016-Nov-28 21:33N 53°38' W 000°12'0 0.0
2016-Nov-28 13:25N 53°38' W 000°12'  

Dump ship's entire track history